Saint Paris, Ohio
Current Conditions -  °F | °C
As of 5:10 PM on Thursday 27 Nov 2014 (Local Time) from KEDJ Reporting Station
Overcast Overcast  
Wind Chill: 17°   Ceiling: 1100
Heat Index: 28°   Visibility: 9mi
Dew Point: 25°   Wind: 14mph
Humidity: 86%   Direction: 270°W
Pressure: 30.25"   Gusts: 17mph
Location:  40.13°N, 83.96°W
Report Text: KEDJ 272210Z AUTO 27012G15KT 9SM BKN011 OVC019 M02/M04 A3025 RMK AO1
Loading
Personal Weather Stations






























Interactive Weather Map New forecast layout! Learn more

10-Day Weather Forecast

Advertisements
Track Severe Weather on mobile